Time;durP1;ratioP1;P1;durP2;ratioP2;P2;SDS_P1;SDS_P2;PMS_P1;PMS_P2;Temp;Humidity;BMP_temperature;BMP_pressure;BME280_temperature;BME280_humidity;BME280_pressure;Samples;Min_cycle;Max_cycle;Signal;HPM_P1;HPM_P2
2021/09/02 00:01:15;;;;;;;5.80;2.72;;;18.50;88.30;;;;;;5032884;28;20067;-76
2021/09/02 00:03:40;;;;;;;6.22;2.90;;;18.50;88.40;;;;;;5033433;28;20025;-75
2021/09/02 00:06:06;;;;;;;5.57;2.63;;;18.50;88.40;;;;;;5047812;28;20445;-76
2021/09/02 00:08:31;;;;;;;9.45;3.15;;;18.50;88.40;;;;;;5033314;28;20025;-75
2021/09/02 00:10:57;;;;;;;10.52;2.78;;;18.50;88.40;;;;;;5048256;28;20032;-76
2021/09/02 00:13:23;;;;;;;5.53;2.88;;;18.40;88.40;;;;;;5032027;28;20021;-76
2021/09/02 00:15:49;;;;;;;5.30;2.67;;;18.50;88.50;;;;;;5032800;28;20561;-75
2021/09/02 00:18:14;;;;;;;6.75;2.63;;;18.40;88.40;;;;;;5032341;28;20458;-76
2021/09/02 00:20:40;;;;;;;7.57;3.08;;;18.40;88.40;;;;;;5032464;28;20036;-76
2021/09/02 00:23:06;;;;;;;8.15;3.38;;;18.40;88.40;;;;;;5048147;28;20021;-76
2021/09/02 00:25:32;;;;;;;9.63;3.72;;;18.40;88.40;;;;;;5047198;28;20014;-76
2021/09/02 00:27:57;;;;;;;6.50;3.33;;;18.40;88.60;;;;;;5032445;28;20021;-76
2021/09/02 00:30:23;;;;;;;8.43;3.72;;;18.40;88.60;;;;;;5047256;28;20032;-76
2021/09/02 00:32:49;;;;;;;11.38;3.72;;;18.40;88.70;;;;;;5048108;28;20028;-76
2021/09/02 00:35:14;;;;;;;6.97;3.47;;;18.40;88.80;;;;;;5031979;28;20029;-76
2021/09/02 00:37:40;;;;;;;7.20;3.35;;;18.40;88.90;;;;;;5031126;28;20436;-76
2021/09/02 00:40:07;;;;;;;6.90;3.38;;;18.40;89.00;;;;;;5031243;28;20357;-76
2021/09/02 00:42:32;;;;;;;6.65;3.58;;;18.40;89.10;;;;;;5032169;28;20021;-76
2021/09/02 00:44:58;;;;;;;9.25;3.78;;;18.40;89.20;;;;;;5032084;28;20402;-75
2021/09/02 00:47:25;;;;;;;6.43;3.80;;;18.30;89.20;;;;;;5031758;28;20043;-76
2021/09/02 00:49:51;;;;;;;9.50;3.78;;;18.30;89.40;;;;;;5032685;28;20021;-75
2021/09/02 00:52:28;;;;;;;8.13;4.10;;;18.30;89.50;;;;;;5031437;28;20139;-76
2021/09/02 00:54:58;;;;;;;7.50;3.60;;;18.30;89.70;;;;;;5030991;28;20017;-75
2021/09/02 00:57:26;;;;;;;10.68;3.92;;;18.30;89.60;;;;;;5046789;28;20030;-74
2021/09/02 00:59:55;;;;;;;7.78;3.50;;;18.30;89.60;;;;;;5032028;28;20114;-75
2021/09/02 01:02:25;;;;;;;10.10;3.75;;;18.30;89.60;;;;;;5031871;28;20021;-75
2021/09/02 01:04:52;;;;;;;5.88;3.30;;;18.20;89.70;;;;;;5031990;28;20032;-75
2021/09/02 01:07:22;;;;;;;7.93;3.72;;;18.20;89.90;;;;;;5032155;28;20071;-75
2021/09/02 01:09:48;;;;;;;7.80;3.83;;;18.20;90.00;;;;;;5030948;28;20033;-75
2021/09/02 01:12:37;;;;;;;9.43;3.83;;;18.20;90.00;;;;;;5031249;28;20022;-75
2021/09/02 01:15:23;;;;;;;7.65;3.83;;;18.20;90.10;;;;;;5024975;28;20033;-75
2021/09/02 01:17:51;;;;;;;8.43;3.92;;;18.10;90.10;;;;;;5032187;28;20071;-75
2021/09/02 01:20:20;;;;;;;8.70;3.70;;;18.10;90.10;;;;;;5031582;28;20473;-75
2021/09/02 01:22:47;;;;;;;9.07;3.63;;;18.10;90.10;;;;;;5031757;28;20106;-74
2021/09/02 01:25:15;;;;;;;10.27;4.07;;;18.10;90.20;;;;;;5031276;28;20025;-75
2021/09/02 01:27:43;;;;;;;9.07;3.90;;;18.10;90.20;;;;;;5032039;28;20021;-75
2021/09/02 01:30:13;;;;;;;8.18;3.38;;;18.10;90.20;;;;;;5047258;28;20039;-75
2021/09/02 01:32:41;;;;;;;10.43;3.70;;;18.10;90.20;;;;;;5031881;28;20025;-75
2021/09/02 01:35:09;;;;;;;7.05;3.22;;;18.10;90.20;;;;;;5031887;28;20442;-74
2021/09/02 01:37:50;;;;;;;7.15;3.65;;;18.10;90.20;;;;;;5047344;28;20029;-75
2021/09/02 01:40:19;;;;;;;8.75;4.03;;;18.00;90.20;;;;;;5035127;28;20018;-75
2021/09/02 01:42:44;;;;;;;8.27;4.13;;;18.00;90.30;;;;;;5051120;28;20409;-75
2021/09/02 01:45:11;;;;;;;9.80;4.07;;;18.00;90.30;;;;;;5034470;28;20120;-75
2021/09/02 01:47:38;;;;;;;6.78;3.45;;;18.00;90.40;;;;;;5050572;28;20025;-74
2021/09/02 01:50:16;;;;;;;7.68;4.03;;;17.90;90.40;;;;;;5035589;28;20459;-75
2021/09/02 01:52:43;;;;;;;8.48;3.35;;;17.90;90.40;;;;;;5035264;28;20477;-75
2021/09/02 01:55:10;;;;;;;7.70;3.63;;;17.90;90.50;;;;;;5035502;28;20485;-75
2021/09/02 01:57:55;;;;;;;6.85;3.20;;;17.90;90.50;;;;;;5034822;28;20017;-75
2021/09/02 02:00:22;;;;;;;9.48;3.75;;;17.90;90.50;;;;;;5050076;28;20045;-75
2021/09/02 02:02:48;;;;;;;8.77;3.78;;;17.90;90.50;;;;;;5035091;28;20100;-75
2021/09/02 02:05:14;;;;;;;6.10;3.00;;;17.90;90.50;;;;;;5034664;28;20438;-75
2021/09/02 02:07:41;;;;;;;7.75;3.45;;;17.90;90.50;;;;;;5035005;28;20026;-75
2021/09/02 02:10:10;;;;;;;5.78;3.75;;;17.80;90.50;;;;;;5035297;28;20017;-75
2021/09/02 02:12:36;;;;;;;7.90;3.80;;;17.80;90.50;;;;;;5034576;28;20508;-75
2021/09/02 02:15:03;;;;;;;9.18;3.90;;;17.80;90.50;;;;;;5035183;28;20022;-75
2021/09/02 02:17:29;;;;;;;7.50;3.47;;;17.80;90.50;;;;;;5049502;28;20046;-74
2021/09/02 02:19:55;;;;;;;6.05;3.50;;;17.80;90.60;;;;;;5033743;28;20016;-75
2021/09/02 02:22:20;;;;;;;6.43;3.30;;;17.80;90.60;;;;;;5034130;28;20508;-75
2021/09/02 02:24:46;;;;;;;8.57;3.28;;;17.80;90.60;;;;;;5035009;28;20025;-74
2021/09/02 02:27:12;;;;;;;6.05;2.90;;;17.80;90.70;;;;;;5034676;28;20116;-75
2021/09/02 02:29:37;;;;;;;6.43;3.67;;;17.80;90.60;;;;;;5034281;28;20505;-75
2021/09/02 02:32:03;;;;;;;6.75;3.45;;;17.80;90.60;;;;;;5034566;28;20022;-74
2021/09/02 02:34:29;;;;;;;6.45;3.08;;;17.80;90.60;;;;;;5032996;28;20009;-75
2021/09/02 02:36:54;;;;;;;6.25;3.53;;;17.80;90.60;;;;;;5034391;28;20461;-75
2021/09/02 02:39:20;;;;;;;8.88;3.80;;;17.90;90.60;;;;;;5034040;28;20017;-75
2021/09/02 02:41:46;;;;;;;8.32;3.92;;;17.80;90.60;;;;;;5034600;28;20025;-75
2021/09/02 02:44:12;;;;;;;8.18;3.20;;;17.80;90.60;;;;;;5034427;28;20021;-75
2021/09/02 02:46:37;;;;;;;6.65;3.78;;;17.80;90.60;;;;;;5033911;28;20025;-75
2021/09/02 02:49:03;;;;;;;8.95;3.47;;;17.90;90.70;;;;;;5033672;28;20111;-75
2021/09/02 02:51:29;;;;;;;7.18;3.47;;;17.90;90.70;;;;;;5033829;28;20029;-75
2021/09/02 02:53:55;;;;;;;9.65;4.05;;;17.90;90.70;;;;;;5049842;28;20013;-75
2021/09/02 02:56:21;;;;;;;10.40;3.60;;;17.80;90.70;;;;;;5048995;28;20528;-75
2021/09/02 02:58:48;;;;;;;7.88;3.20;;;17.80;90.70;;;;;;5034384;28;20488;-75
2021/09/02 03:01:14;;;;;;;8.10;4.22;;;17.80;90.70;;;;;;5034343;28;20021;-75
2021/09/02 03:03:40;;;;;;;8.25;4.07;;;17.80;90.80;;;;;;5048872;28;20422;-75
2021/09/02 03:06:08;;;;;;;12.07;4.03;;;17.80;90.80;;;;;;5034232;28;20104;-75
2021/09/02 03:08:33;;;;;;;10.27;4.32;;;17.90;90.90;;;;;;5033639;28;20442;-75
2021/09/02 03:10:59;;;;;;;7.25;3.42;;;17.80;90.90;;;;;;5034171;28;20022;-75
2021/09/02 03:13:25;;;;;;;6.88;3.67;;;17.80;91.10;;;;;;5048904;28;20021;-75
2021/09/02 03:15:50;;;;;;;8.77;3.92;;;17.80;90.80;;;;;;5042838;28;20033;-75
2021/09/02 03:18:16;;;;;;;9.90;4.18;;;17.90;90.90;;;;;;5052946;28;20112;-75
2021/09/02 03:20:42;;;;;;;8.73;4.10;;;17.80;90.80;;;;;;5053036;28;20021;-74
2021/09/02 03:23:07;;;;;;;8.63;3.75;;;17.80;90.90;;;;;;5053785;28;20026;-75
2021/09/02 03:25:33;;;;;;;11.13;4.32;;;17.80;90.90;;;;;;5051689;28;20536;-75
2021/09/02 03:27:58;;;;;;;9.25;4.15;;;17.90;90.90;;;;;;5053504;28;20021;-74
2021/09/02 03:30:24;;;;;;;7.88;3.70;;;17.90;90.90;;;;;;5053186;28;20025;-75
2021/09/02 03:32:50;;;;;;;8.82;4.10;;;17.90;91.00;;;;;;5053630;28;20473;-74
2021/09/02 03:35:15;;;;;;;8.30;3.85;;;17.80;91.00;;;;;;5054083;28;20049;-74
2021/09/02 03:37:41;;;;;;;9.48;3.70;;;17.80;91.00;;;;;;5052848;28;20176;-75
2021/09/02 03:40:07;;;;;;;9.82;3.97;;;17.80;91.10;;;;;;5052360;28;20352;-74
2021/09/02 03:42:33;;;;;;;9.90;4.40;;;17.80;91.10;;;;;;5052664;28;20086;-74
2021/09/02 03:44:59;;;;;;;8.55;4.00;;;17.80;91.10;;;;;;5053096;28;20404;-74
2021/09/02 03:47:24;;;;;;;8.88;4.35;;;17.80;91.20;;;;;;5052732;28;20449;-74
2021/09/02 03:49:50;;;;;;;8.70;4.50;;;17.80;91.10;;;;;;5053300;28;20020;-74
2021/09/02 03:52:15;;;;;;;8.73;4.03;;;17.80;91.10;;;;;;5053332;28;20062;-74
2021/09/02 03:54:41;;;;;;;8.25;4.07;;;17.80;91.20;;;;;;5052667;28;20021;-74
2021/09/02 03:57:07;;;;;;;7.22;3.63;;;17.80;91.20;;;;;;5051805;28;20127;-75
2021/09/02 03:59:32;;;;;;;8.85;4.60;;;17.80;91.20;;;;;;5046186;28;20113;-75
2021/09/02 04:01:58;;;;;;;9.25;3.90;;;17.80;91.20;;;;;;5040418;28;20036;-76
2021/09/02 04:04:23;;;;;;;9.55;3.97;;;17.80;91.40;;;;;;5039089;28;20060;-75
2021/09/02 04:06:49;;;;;;;10.20;4.30;;;17.80;91.20;;;;;;5046605;28;20408;-75
2021/09/02 04:09:15;;;;;;;8.25;3.50;;;17.80;91.20;;;;;;5041092;28;20022;-75
2021/09/02 04:11:40;;;;;;;8.25;4.57;;;17.80;91.20;;;;;;5039082;28;20029;-75
2021/09/02 04:14:06;;;;;;;10.25;4.70;;;17.80;91.20;;;;;;5041492;28;20033;-75
2021/09/02 04:16:32;;;;;;;7.00;3.63;;;17.80;91.20;;;;;;5042670;28;20393;-75
2021/09/02 04:18:57;;;;;;;6.45;3.88;;;17.80;91.10;;;;;;5031188;28;20068;-75
2021/09/02 04:21:23;;;;;;;10.70;5.45;;;17.70;91.10;;;;;;5035719;28;20062;-75
2021/09/02 04:23:49;;;;;;;10.63;4.25;;;17.70;91.20;;;;;;5042412;28;20033;-75
2021/09/02 04:26:16;;;;;;;8.93;4.65;;;17.70;91.20;;;;;;5037816;28;20450;-75
2021/09/02 04:28:42;;;;;;;9.57;4.20;;;17.60;91.30;;;;;;5036232;28;20395;-75
2021/09/02 04:31:07;;;;;;;8.48;3.60;;;17.60;91.30;;;;;;5043222;28;20017;-75
2021/09/02 04:33:33;;;;;;;8.32;4.15;;;17.60;91.30;;;;;;5033821;28;20487;-75
2021/09/02 04:35:59;;;;;;;9.55;4.60;;;17.60;91.30;;;;;;5043983;28;20533;-76
2021/09/02 04:38:24;;;;;;;9.32;3.85;;;17.60;91.30;;;;;;5051952;28;20025;-75
2021/09/02 04:40:51;;;;;;;9.32;4.72;;;17.60;91.30;;;;;;5052343;28;20024;-75
2021/09/02 04:43:17;;;;;;;8.82;4.00;;;17.60;91.30;;;;;;5051045;28;20032;-75
2021/09/02 04:45:43;;;;;;;9.75;4.85;;;17.60;91.30;;;;;;5051608;28;20570;-75
2021/09/02 04:48:17;;;;;;;9.75;4.07;;;17.60;91.20;;;;;;5050961;28;20103;-75
2021/09/02 04:50:45;;;;;;;8.63;4.80;;;17.60;91.30;;;;;;5051616;28;20017;-75
2021/09/02 04:53:11;;;;;;;8.40;4.30;;;17.60;91.30;;;;;;5044296;28;20022;-75
2021/09/02 04:55:36;;;;;;;7.05;3.45;;;17.60;91.30;;;;;;5039902;28;20066;-74
2021/09/02 04:58:04;;;;;;;10.27;4.15;;;17.60;91.30;;;;;;5046653;28;20465;-75
2021/09/02 05:00:30;;;;;;;10.68;4.22;;;17.60;91.30;;;;;;5032338;28;20064;-75
2021/09/02 05:02:56;;;;;;;10.80;4.57;;;17.60;91.30;;;;;;5042734;28;20017;-76
2021/09/02 05:05:21;;;;;;;8.90;4.57;;;17.60;91.20;;;;;;5041158;28;20029;-75
2021/09/02 05:07:47;;;;;;;11.60;4.13;;;17.60;91.20;;;;;;5036953;28;20029;-75
2021/09/02 05:10:13;;;;;;;7.20;4.00;;;17.60;91.20;;;;;;5037266;28;20025;-75
2021/09/02 05:12:39;;;;;;;9.30;3.67;;;17.60;91.30;;;;;;5036557;28;20025;-75
2021/09/02 05:15:05;;;;;;;7.95;3.75;;;17.60;91.30;;;;;;5044236;28;20033;-75
2021/09/02 05:17:31;;;;;;;9.02;4.03;;;17.60;91.30;;;;;;5042429;28;20040;-75
2021/09/02 05:19:56;;;;;;;8.05;3.80;;;17.60;91.30;;;;;;5051354;28;20105;-75
2021/09/02 05:22:22;;;;;;;9.20;3.75;;;17.60;91.30;;;;;;5051903;28;20092;-75
2021/09/02 05:24:48;;;;;;;13.73;4.15;;;17.60;91.30;;;;;;5051493;28;20033;-75
2021/09/02 05:27:14;;;;;;;8.35;3.97;;;17.50;91.30;;;;;;5051749;28;20028;-75
2021/09/02 05:29:39;;;;;;;8.38;3.50;;;17.50;91.30;;;;;;5051165;28;20104;-75
2021/09/02 05:32:05;;;;;;;7.55;3.30;;;17.60;91.30;;;;;;5051424;28;20044;-75
2021/09/02 05:34:31;;;;;;;7.57;3.45;;;17.60;91.30;;;;;;5050072;28;20116;-75
2021/09/02 05:36:57;;;;;;;7.88;3.00;;;17.50;91.30;;;;;;5050340;28;20167;-75
2021/09/02 05:39:22;;;;;;;9.60;3.28;;;17.60;91.20;;;;;;5050522;28;20075;-75
2021/09/02 05:41:49;;;;;;;9.82;3.58;;;17.50;91.30;;;;;;5049708;28;20406;-75
2021/09/02 05:44:16;;;;;;;8.27;3.80;;;17.50;91.30;;;;;;5050137;28;20021;-75
2021/09/02 05:46:41;;;;;;;6.75;3.40;;;17.40;91.30;;;;;;5050595;28;20346;-75
2021/09/02 05:49:07;;;;;;;8.38;3.58;;;17.40;91.30;;;;;;5050216;28;20017;-75
2021/09/02 05:51:33;;;;;;;9.38;3.35;;;17.40;91.40;;;;;;5051096;28;20464;-75
2021/09/02 05:53:58;;;;;;;8.10;3.40;;;17.40;91.40;;;;;;5051532;28;20013;-75
2021/09/02 05:56:24;;;;;;;7.03;3.03;;;17.40;91.40;;;;;;5051642;28;20361;-75
2021/09/02 05:58:50;;;;;;;8.63;2.83;;;17.40;91.40;;;;;;5051501;28;20234;-75
2021/09/02 06:01:16;;;;;;;7.90;2.90;;;17.40;91.40;;;;;;5051267;28;20025;-74
2021/09/02 06:03:42;;;;;;;7.88;3.30;;;17.40;91.30;;;;;;5050893;28;20022;-74
2021/09/02 06:06:08;;;;;;;6.93;3.28;;;17.40;91.30;;;;;;5051036;28;20361;-74
2021/09/02 06:08:34;;;;;;;9.05;3.72;;;17.40;91.40;;;;;;5050742;28;20013;-75
2021/09/02 06:11:02;;;;;;;7.63;3.08;;;17.40;91.40;;;;;;5051409;28;20021;-75
2021/09/02 06:13:29;;;;;;;5.72;2.83;;;17.40;91.40;;;;;;5051243;28;20051;-75
2021/09/02 06:15:55;;;;;;;6.13;2.95;;;17.50;91.40;;;;;;5050556;28;20025;-74
2021/09/02 06:18:21;;;;;;;7.13;3.17;;;17.50;91.30;;;;;;5049704;28;20124;-75
2021/09/02 06:20:47;;;;;;;6.47;2.60;;;17.50;91.20;;;;;;5050321;28;20049;-75
2021/09/02 06:23:12;;;;;;;6.85;2.47;;;17.50;91.20;;;;;;5050288;28;20017;-77
2021/09/02 06:25:38;;;;;;;7.22;2.78;;;17.50;91.20;;;;;;5054479;28;20373;-75
2021/09/02 06:28:04;;;;;;;7.78;2.75;;;17.50;91.20;;;;;;5054529;28;20100;-75
2021/09/02 06:30:30;;;;;;;6.22;2.45;;;17.40;91.20;;;;;;5054616;28;20017;-74
2021/09/02 06:32:56;;;;;;;5.88;2.65;;;17.40;91.20;;;;;;5053823;28;20086;-74
2021/09/02 06:35:21;;;;;;;6.40;1.80;;;17.40;91.20;;;;;;5054867;28;20120;-74
2021/09/02 06:37:47;;;;;;;6.32;2.70;;;17.40;91.20;;;;;;5052751;28;20021;-74
2021/09/02 06:40:13;;;;;;;8.02;3.58;;;17.40;91.10;;;;;;5054682;28;20032;-74
2021/09/02 06:42:39;;;;;;;5.38;2.38;;;17.40;91.10;;;;;;5052552;28;20388;-74
2021/09/02 06:45:05;;;;;;;6.95;2.67;;;17.40;91.10;;;;;;5054815;28;20013;-74
2021/09/02 06:47:31;;;;;;;7.05;2.50;;;17.50;91.10;;;;;;5053195;28;20094;-74
2021/09/02 06:49:56;;;;;;;5.60;2.65;;;17.50;91.10;;;;;;5053792;28;20509;-77
2021/09/02 06:52:22;;;;;;;4.78;2.60;;;17.50;91.00;;;;;;5054064;28;20024;-74
2021/09/02 06:54:48;;;;;;;5.32;2.90;;;17.50;91.00;;;;;;5052326;28;20017;-74
2021/09/02 06:57:13;;;;;;;6.63;2.33;;;17.50;91.00;;;;;;5052921;28;20037;-77
2021/09/02 06:59:39;;;;;;;6.70;2.85;;;17.40;91.00;;;;;;5053453;28;20071;-77
2021/09/02 07:02:05;;;;;;;6.72;2.92;;;17.30;91.00;;;;;;5052903;28;20025;-77
2021/09/02 07:04:31;;;;;;;7.20;2.50;;;17.30;91.00;;;;;;5054179;28;20021;-77
2021/09/02 07:06:56;;;;;;;7.47;2.38;;;17.20;91.10;;;;;;5052270;28;20024;-76
2021/09/02 07:09:22;;;;;;;6.85;2.30;;;17.30;91.10;;;;;;5054161;28;20013;-77
2021/09/02 07:11:48;;;;;;;7.30;2.67;;;17.30;91.10;;;;;;5052020;28;20025;-77
2021/09/02 07:14:14;;;;;;;6.30;2.45;;;17.30;91.10;;;;;;5053995;28;20029;-77
2021/09/02 07:16:39;;;;;;;6.53;2.45;;;17.30;91.10;;;;;;5053189;28;20049;-77
2021/09/02 07:19:05;;;;;;;6.80;2.80;;;17.40;91.20;;;;;;5054235;28;20154;-77
2021/09/02 07:21:30;;;;;;;6.70;3.03;;;17.40;91.20;;;;;;5053429;28;20094;-74
2021/09/02 07:23:56;;;;;;;8.23;3.28;;;17.40;91.20;;;;;;5053008;28;20025;-74
2021/09/02 07:26:22;;;;;;;6.18;2.90;;;17.40;91.10;;;;;;5053479;28;20109;-75
2021/09/02 07:28:48;;;;;;;6.28;2.78;;;17.40;91.10;;;;;;5053083;28;20028;-75
2021/09/02 07:31:14;;;;;;;8.07;2.78;;;17.40;91.00;;;;;;5052438;28;20016;-75
2021/09/02 07:33:39;;;;;;;7.50;3.30;;;17.40;91.00;;;;;;5051754;28;20353;-74
2021/09/02 07:36:05;;;;;;;6.35;2.58;;;17.40;91.00;;;;;;5053304;28;20100;-74
2021/09/02 07:38:30;;;;;;;5.32;2.40;;;17.40;91.00;;;;;;5053383;28;20029;-75
2021/09/02 07:40:56;;;;;;;8.45;3.05;;;17.50;91.00;;;;;;5052706;28;20021;-74
2021/09/02 07:43:22;;;;;;;5.80;2.53;;;17.50;91.00;;;;;;5052044;28;20021;-75
2021/09/02 07:45:47;;;;;;;5.38;2.70;;;17.50;90.90;;;;;;5052407;28;20056;-74
2021/09/02 07:48:13;;;;;;;4.30;2.38;;;17.50;90.90;;;;;;5053033;28;20116;-74
2021/09/02 07:50:39;;;;;;;6.45;2.83;;;17.50;90.80;;;;;;5051270;28;20043;-75
2021/09/02 07:53:05;;;;;;;6.70;2.60;;;17.50;90.80;;;;;;5053309;28;20060;-74
2021/09/02 07:55:30;;;;;;;4.90;2.63;;;17.60;90.70;;;;;;5053146;28;20063;-74
2021/09/02 07:57:59;;;;;;;6.82;2.53;;;17.60;90.60;;;;;;5052385;28;20032;-75
2021/09/02 08:00:24;;;;;;;5.93;2.45;;;17.60;90.50;;;;;;5051687;28;20028;-75
2021/09/02 08:02:50;;;;;;;6.55;2.67;;;17.60;90.40;;;;;;5052222;28;20021;-74
2021/09/02 08:05:16;;;;;;;5.85;2.85;;;17.70;90.40;;;;;;5052882;28;20040;-75
2021/09/02 08:07:50;;;;;;;6.85;2.28;;;17.70;90.40;;;;;;5052385;28;20029;-75
2021/09/02 08:10:17;;;;;;;6.78;2.45;;;17.70;90.40;;;;;;5051574;28;20338;-75
2021/09/02 08:12:43;;;;;;;4.20;2.30;;;17.80;90.40;;;;;;5052288;28;20073;-75
2021/09/02 08:15:09;;;;;;;3.72;2.40;;;17.80;90.30;;;;;;5052614;28;20457;-75
2021/09/02 08:17:35;;;;;;;5.50;2.70;;;17.90;90.30;;;;;;5051229;28;20130;-75
2021/09/02 08:20:01;;;;;;;3.20;2.05;;;17.90;90.20;;;;;;5050835;28;20047;-75
2021/09/02 08:22:27;;;;;;;4.60;2.10;;;18.00;90.10;;;;;;5053076;28;20106;-75
2021/09/02 08:24:52;;;;;;;4.88;1.95;;;18.00;90.00;;;;;;5053304;28;20021;-75
2021/09/02 08:27:20;;;;;;;6.78;2.50;;;18.00;89.90;;;;;;5052285;28;20012;-75
2021/09/02 08:29:46;;;;;;;6.15;2.45;;;18.00;89.90;;;;;;5050540;28;20032;-75
2021/09/02 08:32:12;;;;;;;10.02;2.58;;;18.00;89.80;;;;;;5052402;28;20025;-75
2021/09/02 08:34:38;;;;;;;5.47;2.25;;;18.10;89.60;;;;;;5051316;28;20028;-75
2021/09/02 08:37:04;;;;;;;6.63;2.50;;;18.20;89.30;;;;;;5051746;28;20063;-75
2021/09/02 08:39:30;;;;;;;5.47;2.40;;;18.30;89.10;;;;;;5051072;28;20056;-75
2021/09/02 08:41:56;;;;;;;4.18;2.20;;;18.40;88.80;;;;;;5051417;28;20017;-75
2021/09/02 08:44:23;;;;;;;6.30;2.95;;;18.50;88.60;;;;;;5052435;28;20493;-75
2021/09/02 08:46:49;;;;;;;7.65;2.47;;;18.50;88.10;;;;;;5049926;28;20327;-75
2021/09/02 08:49:21;;;;;;;8.02;3.30;;;18.60;87.80;;;;;;5052119;28;20021;-75
2021/09/02 08:51:48;;;;;;;5.40;2.22;;;18.60;87.30;;;;;;5051194;28;20334;-75
2021/09/02 08:54:14;;;;;;;4.82;2.45;;;18.60;87.10;;;;;;5052147;28;20021;-75
2021/09/02 08:56:40;;;;;;;6.07;2.75;;;18.70;86.90;;;;;;5050716;28;20074;-75
2021/09/02 08:59:06;;;;;;;6.30;2.90;;;18.90;86.50;;;;;;5050174;28;20060;-75
2021/09/02 09:01:32;;;;;;;8.40;3.13;;;19.10;85.80;;;;;;5052311;28;20052;-75
2021/09/02 09:03:58;;;;;;;6.28;2.70;;;19.30;85.40;;;;;;5051445;28;20028;-75
2021/09/02 09:06:26;;;;;;;7.60;3.13;;;19.40;84.90;;;;;;5050588;28;20021;-75
2021/09/02 09:08:52;;;;;;;5.13;2.75;;;19.50;84.60;;;;;;5050036;28;20439;-75
2021/09/02 09:11:28;;;;;;;8.10;3.03;;;19.40;84.50;;;;;;5050559;28;20021;-75
2021/09/02 09:14:14;;;;;;;8.30;2.92;;;19.40;84.60;;;;;;5050082;28;20079;-75
2021/09/02 09:16:43;;;;;;;8.75;2.78;;;19.30;84.80;;;;;;5049920;28;20070;-75
2021/09/02 09:19:08;;;;;;;5.78;2.60;;;19.20;85.10;;;;;;5050080;28;20138;-75
2021/09/02 09:21:34;;;;;;;7.50;3.38;;;19.10;85.30;;;;;;5050163;28;20481;-75
2021/09/02 09:24:04;;;;;;;5.88;2.65;;;19.10;85.30;;;;;;5049984;28;20024;-75
2021/09/02 09:26:31;;;;;;;6.78;3.05;;;19.10;85.30;;;;;;5050307;28;20021;-75
2021/09/02 09:29:01;;;;;;;6.18;2.70;;;19.10;85.40;;;;;;5051142;28;20021;-75
2021/09/02 09:31:33;;;;;;;5.20;2.65;;;19.10;85.20;;;;;;5051754;28;20028;-75
2021/09/02 09:34:04;;;;;;;7.75;2.80;;;19.10;85.10;;;;;;5049700;28;20151;-74
2021/09/02 09:36:32;;;;;;;4.78;2.70;;;19.10;85.10;;;;;;5050286;28;20203;-75
2021/09/02 09:39:06;;;;;;;5.90;2.75;;;19.10;84.90;;;;;;5049752;28;20107;-74
2021/09/02 09:41:33;;;;;;;4.18;1.80;;;19.10;84.60;;;;;;5051664;28;20024;-75
2021/09/02 09:44:16;;;;;;;4.75;2.40;;;19.20;84.60;;;;;;5049602;28;20369;-74
2021/09/02 09:46:42;;;;;;;7.90;3.08;;;19.20;84.30;;;;;;5050387;28;20021;-75
2021/09/02 09:49:08;;;;;;;5.68;2.90;;;19.30;84.30;;;;;;5049619;28;20052;-74
2021/09/02 09:51:34;;;;;;;6.45;2.90;;;19.20;84.10;;;;;;5050204;28;20059;-74
2021/09/02 09:54:01;;;;;;;5.90;2.88;;;19.30;83.80;;;;;;5050567;28;20032;-75
2021/09/02 09:56:27;;;;;;;5.30;2.50;;;19.30;83.60;;;;;;5051335;28;20413;-75
2021/09/02 09:58:54;;;;;;;8.02;2.08;;;19.30;83.40;;;;;;5051019;28;20029;-75
2021/09/02 10:01:20;;;;;;;7.88;3.35;;;19.30;83.20;;;;;;5053990;28;20029;-74
2021/09/02 10:03:54;;;;;;;7.07;3.20;;;19.40;83.10;;;;;;5055350;28;20098;-74
2021/09/02 10:06:22;;;;;;;7.45;2.92;;;19.40;82.80;;;;;;5053881;28;20029;-75
2021/09/02 10:08:48;;;;;;;7.53;3.40;;;19.40;82.70;;;;;;5055223;28;20019;-75
2021/09/02 10:11:15;;;;;;;4.75;2.28;;;19.50;82.60;;;;;;5053618;28;20108;-75
2021/09/02 10:13:42;;;;;;;6.70;2.67;;;19.50;82.50;;;;;;5055200;28;20099;-75
2021/09/02 10:16:08;;;;;;;6.95;2.95;;;19.50;82.40;;;;;;5054219;28;20095;-75
2021/09/02 10:18:40;;;;;;;4.95;2.63;;;19.50;82.30;;;;;;5055054;28;20021;-75
2021/09/02 10:21:08;;;;;;;6.88;2.88;;;19.60;82.10;;;;;;5054118;28;20472;-75
2021/09/02 10:23:34;;;;;;;6.70;2.90;;;19.60;82.00;;;;;;5053581;28;20035;-75
2021/09/02 10:26:01;;;;;;;5.28;3.05;;;19.60;81.80;;;;;;5054301;28;20095;-75
2021/09/02 10:28:29;;;;;;;6.55;3.17;;;19.70;81.80;;;;;;5053252;28;20416;-75
2021/09/02 10:30:58;;;;;;;5.05;2.38;;;19.70;81.60;;;;;;5054307;28;20024;-75
2021/09/02 10:33:40;;;;;;;6.63;3.15;;;19.80;81.60;;;;;;5053565;28;20055;-75
2021/09/02 10:36:15;;;;;;;5.25;2.72;;;19.80;81.10;;;;;;5052611;28;20027;-75
2021/09/02 10:38:51;;;;;;;8.10;3.72;;;19.80;81.00;;;;;;5054573;28;20021;-75
2021/09/02 10:41:40;;;;;;;8.60;3.03;;;19.90;81.70;;;;;;5053464;28;20025;-76
2021/09/02 10:44:19;;;;;;;5.30;3.00;;;19.90;80.80;;;;;;5054149;28;20059;-75
2021/09/02 10:46:46;;;;;;;6.78;2.92;;;19.90;80.80;;;;;;5053427;28;20346;-75
2021/09/02 10:49:31;;;;;;;4.63;2.83;;;19.90;80.70;;;;;;5057671;28;20055;-75
2021/09/02 10:51:58;;;;;;;8.18;3.05;;;19.90;80.40;;;;;;5052647;28;20025;-75
2021/09/02 10:54:28;;;;;;;7.45;3.28;;;20.00;80.50;;;;;;5054441;28;20067;-75
2021/09/02 10:56:56;;;;;;;8.23;2.90;;;20.00;80.00;;;;;;5053669;28;20025;-75
2021/09/02 10:59:44;;;;;;;6.63;3.55;;;20.00;79.80;;;;;;5054445;28;20108;-75
2021/09/02 11:02:16;;;;;;;7.90;3.47;;;20.00;79.50;;;;;;5053648;28;20021;-75
2021/09/02 11:04:43;;;;;;;8.60;2.63;;;20.00;79.50;;;;;;5054118;28;20017;-75
2021/09/02 11:07:08;;;;;;;4.43;2.42;;;20.00;79.60;;;;;;5053737;28;20025;-76
2021/09/02 11:09:39;;;;;;;4.68;2.75;;;20.10;79.50;;;;;;5053711;28;20031;-75
2021/09/02 11:12:10;;;;;;;7.80;3.33;;;20.10;79.30;;;;;;5052232;28;20017;-75
2021/09/02 11:14:41;;;;;;;;;;;20.20;79.20;;;;;;5053195;28;20463;-75
2021/09/02 11:17:08;;;;;;;6.38;2.88;;;20.30;78.90;;;;;;5053405;28;19913;-75
2021/09/02 11:19:36;;;;;;;6.15;2.65;;;20.40;78.30;;;;;;5053874;28;20025;-75
2021/09/02 11:22:13;;;;;;;5.60;2.80;;;20.50;78.10;;;;;;5052735;28;20021;-75
2021/09/02 11:24:40;;;;;;;6.57;3.15;;;20.60;77.80;;;;;;5053508;28;20021;-75
2021/09/02 11:27:06;;;;;;;6.90;2.83;;;20.60;77.80;;;;;;5053125;28;20049;-75
2021/09/02 11:29:32;;;;;;;4.47;2.47;;;20.70;77.80;;;;;;5052058;28;20013;-75
2021/09/02 11:32:02;;;;;;;5.38;2.50;;;20.80;77.60;;;;;;5053131;28;20082;-76
2021/09/02 11:34:28;;;;;;;7.13;2.77;;;20.90;77.40;;;;;;5053907;28;20021;-76
2021/09/02 11:36:55;;;;;;;5.03;2.50;;;21.00;77.10;;;;;;5052756;28;20382;-75
2021/09/02 11:39:25;;;;;;;4.10;2.08;;;21.10;77.20;;;;;;5053420;28;20511;-75
2021/09/02 11:42:01;;;;;;;6.25;3.30;;;21.10;77.20;;;;;;5053833;28;20036;-75
2021/09/02 11:44:26;;;;;;;5.38;2.78;;;21.20;77.20;;;;;;5052116;28;20047;-75
2021/09/02 11:46:53;;;;;;;7.20;2.78;;;21.30;77.10;;;;;;5052057;28;20467;-75
2021/09/02 11:49:19;;;;;;;5.40;2.50;;;21.40;77.00;;;;;;5052376;28;20097;-75
2021/09/02 11:51:58;;;;;;;6.20;2.45;;;21.40;76.90;;;;;;5051811;28;20107;-75
2021/09/02 11:54:25;;;;;;;6.22;2.53;;;21.30;77.10;;;;;;5053351;28;20145;-75
2021/09/02 11:56:51;;;;;;;4.53;2.13;;;21.20;77.30;;;;;;5052908;28;20399;-75
2021/09/02 11:59:17;;;;;;;5.20;2.35;;;21.20;77.50;;;;;;5052459;28;20096;-76
2021/09/02 12:01:52;;;;;;;3.15;2.08;;;21.20;77.50;;;;;;5051600;28;20032;-76
2021/09/02 12:04:21;;;;;;;5.35;2.60;;;21.30;77.50;;;;;;5052451;28;20024;-76
2021/09/02 12:06:50;;;;;;;4.93;2.58;;;21.50;77.20;;;;;;5051685;28;20033;-75
2021/09/02 12:09:19;;;;;;;5.97;3.05;;;21.70;76.60;;;;;;5050961;28;20648;-76
2021/09/02 12:11:45;;;;;;;5.20;2.38;;;21.70;76.20;;;;;;5052927;28;20057;-76
2021/09/02 12:14:35;;;;;;;6.28;2.33;;;21.80;76.10;;;;;;5052297;28;20068;-76
2021/09/02 12:17:05;;;;;;;6.13;2.35;;;21.90;76.20;;;;;;5049389;28;20452;-75
2021/09/02 12:19:57;;;;;;;4.88;1.85;;;22.00;76.00;;;;;;5051392;28;20021;-75
2021/09/02 12:22:31;;;;;;;4.95;1.92;;;22.10;76.10;;;;;;5052040;28;20013;-75
2021/09/02 12:25:11;;;;;;;4.93;2.38;;;22.10;75.90;;;;;;5052413;28;20021;-75
2021/09/02 12:27:45;;;;;;;6.15;2.97;;;22.20;75.50;;;;;;5052580;28;20028;-75
2021/09/02 12:30:12;;;;;;;5.18;2.45;;;22.20;75.20;;;;;;5052136;28;20024;-75
2021/09/02 12:32:37;;;;;;;5.22;2.08;;;22.30;75.10;;;;;;5051318;28;20090;-76
2021/09/02 12:35:17;;;;;;;4.70;2.40;;;22.30;74.90;;;;;;5050508;28;20413;-75
2021/09/02 12:37:43;;;;;;;4.50;2.80;;;22.30;74.80;;;;;;5052253;28;20013;-76
2021/09/02 12:40:27;;;;;;;4.57;2.95;;;22.30;74.70;;;;;;5051673;28;20716;-76
2021/09/02 12:42:53;;;;;;;4.82;2.58;;;22.20;74.50;;;;;;5052254;28;20427;-75
2021/09/02 12:45:23;;;;;;;6.57;3.03;;;22.10;74.70;;;;;;5051763;28;20256;-75
2021/09/02 12:48:00;;;;;;;5.68;2.80;;;22.10;74.60;;;;;;5051030;28;20152;-75